sensor_id;sensor_type;location;lat;lon;timestamp;P1;durP1;ratioP1;P2;durP2;ratioP2
12350;SDS011;6240;51.538;7.696;2023-03-19T00:01:06;3.20;;;2.00;;
12350;SDS011;6240;51.538;7.696;2023-03-19T00:03:33;3.50;;;2.03;;
12350;SDS011;6240;51.538;7.696;2023-03-19T00:06:01;4.60;;;2.43;;
12350;SDS011;6240;51.538;7.696;2023-03-19T00:08:28;4.13;;;2.47;;
12350;SDS011;6240;51.538;7.696;2023-03-19T00:10:55;4.13;;;2.20;;
12350;SDS011;6240;51.538;7.696;2023-03-19T00:13:24;3.20;;;2.10;;
12350;SDS011;6240;51.538;7.696;2023-03-19T00:15:51;5.37;;;2.13;;
12350;SDS011;6240;51.538;7.696;2023-03-19T00:18:19;4.70;;;2.53;;
12350;SDS011;6240;51.538;7.696;2023-03-19T00:20:46;3.10;;;2.17;;
12350;SDS011;6240;51.538;7.696;2023-03-19T00:23:13;4.53;;;2.47;;
12350;SDS011;6240;51.538;7.696;2023-03-19T00:25:40;4.80;;;2.53;;
12350;SDS011;6240;51.538;7.696;2023-03-19T00:28:07;5.03;;;2.40;;
12350;SDS011;6240;51.538;7.696;2023-03-19T00:30:37;4.67;;;2.30;;
12350;SDS011;6240;51.538;7.696;2023-03-19T00:33:05;3.63;;;2.23;;
12350;SDS011;6240;51.538;7.696;2023-03-19T00:35:32;4.03;;;2.70;;
12350;SDS011;6240;51.538;7.696;2023-03-19T00:37:59;5.07;;;2.27;;
12350;SDS011;6240;51.538;7.696;2023-03-19T00:40:26;4.50;;;2.37;;
12350;SDS011;6240;51.538;7.696;2023-03-19T00:42:54;5.07;;;2.57;;
12350;SDS011;6240;51.538;7.696;2023-03-19T00:45:21;4.17;;;2.83;;
12350;SDS011;6240;51.538;7.696;2023-03-19T00:47:50;4.90;;;2.30;;
12350;SDS011;6240;51.538;7.696;2023-03-19T00:50:17;4.60;;;2.60;;
12350;SDS011;6240;51.538;7.696;2023-03-19T00:52:45;5.20;;;2.37;;
12350;SDS011;6240;51.538;7.696;2023-03-19T00:55:12;2.93;;;2.20;;
12350;SDS011;6240;51.538;7.696;2023-03-19T00:57:39;5.57;;;2.53;;
12350;SDS011;6240;51.538;7.696;2023-03-19T01:00:07;3.47;;;2.47;;
12350;SDS011;6240;51.538;7.696;2023-03-19T01:02:36;4.40;;;2.50;;
12350;SDS011;6240;51.538;7.696;2023-03-19T01:05:08;4.83;;;2.63;;
12350;SDS011;6240;51.538;7.696;2023-03-19T01:07:35;3.83;;;2.60;;
12350;SDS011;6240;51.538;7.696;2023-03-19T01:10:03;6.77;;;3.10;;
12350;SDS011;6240;51.538;7.696;2023-03-19T01:12:30;3.80;;;2.70;;
12350;SDS011;6240;51.538;7.696;2023-03-19T01:14:57;3.70;;;2.50;;
12350;SDS011;6240;51.538;7.696;2023-03-19T01:17:24;4.97;;;2.50;;
12350;SDS011;6240;51.538;7.696;2023-03-19T01:19:52;4.67;;;3.10;;
12350;SDS011;6240;51.538;7.696;2023-03-19T01:22:20;3.83;;;2.50;;
12350;SDS011;6240;51.538;7.696;2023-03-19T01:24:48;3.13;;;2.67;;
12350;SDS011;6240;51.538;7.696;2023-03-19T01:27:15;4.30;;;2.63;;
12350;SDS011;6240;51.538;7.696;2023-03-19T01:29:42;4.80;;;2.73;;
12350;SDS011;6240;51.538;7.696;2023-03-19T01:32:09;2.53;;;2.30;;
12350;SDS011;6240;51.538;7.696;2023-03-19T01:34:37;4.60;;;3.10;;
12350;SDS011;6240;51.538;7.696;2023-03-19T01:37:05;6.47;;;3.10;;
12350;SDS011;6240;51.538;7.696;2023-03-19T01:39:33;4.53;;;3.07;;
12350;SDS011;6240;51.538;7.696;2023-03-19T01:42:01;5.47;;;2.57;;
12350;SDS011;6240;51.538;7.696;2023-03-19T01:44:29;5.20;;;2.83;;
12350;SDS011;6240;51.538;7.696;2023-03-19T01:46:57;2.90;;;2.60;;
12350;SDS011;6240;51.538;7.696;2023-03-19T01:49:25;7.13;;;3.43;;
12350;SDS011;6240;51.538;7.696;2023-03-19T01:51:53;4.27;;;2.73;;
12350;SDS011;6240;51.538;7.696;2023-03-19T01:54:22;3.50;;;2.77;;
12350;SDS011;6240;51.538;7.696;2023-03-19T01:56:51;4.67;;;2.90;;
12350;SDS011;6240;51.538;7.696;2023-03-19T01:59:22;3.53;;;2.50;;
12350;SDS011;6240;51.538;7.696;2023-03-19T02:01:52;4.77;;;3.40;;
12350;SDS011;6240;51.538;7.696;2023-03-19T02:04:22;4.50;;;2.60;;
12350;SDS011;6240;51.538;7.696;2023-03-19T02:06:50;8.50;;;3.20;;
12350;SDS011;6240;51.538;7.696;2023-03-19T02:09:18;4.63;;;2.83;;
12350;SDS011;6240;51.538;7.696;2023-03-19T02:11:45;5.63;;;2.93;;
12350;SDS011;6240;51.538;7.696;2023-03-19T02:14:14;4.20;;;2.80;;
12350;SDS011;6240;51.538;7.696;2023-03-19T02:16:41;4.53;;;3.07;;
12350;SDS011;6240;51.538;7.696;2023-03-19T02:19:10;4.43;;;2.90;;
12350;SDS011;6240;51.538;7.696;2023-03-19T02:21:40;4.07;;;2.83;;
12350;SDS011;6240;51.538;7.696;2023-03-19T02:24:08;5.93;;;2.87;;
12350;SDS011;6240;51.538;7.696;2023-03-19T02:26:39;5.20;;;3.13;;
12350;SDS011;6240;51.538;7.696;2023-03-19T02:29:08;4.13;;;2.90;;
12350;SDS011;6240;51.538;7.696;2023-03-19T02:31:35;2.80;;;2.57;;
12350;SDS011;6240;51.538;7.696;2023-03-19T02:34:03;4.67;;;3.07;;
12350;SDS011;6240;51.538;7.696;2023-03-19T02:36:31;6.57;;;2.73;;
12350;SDS011;6240;51.538;7.696;2023-03-19T02:38:59;3.27;;;2.60;;
12350;SDS011;6240;51.538;7.696;2023-03-19T02:41:28;5.60;;;2.97;;
12350;SDS011;6240;51.538;7.696;2023-03-19T02:43:58;4.23;;;2.63;;
12350;SDS011;6240;51.538;7.696;2023-03-19T02:46:26;8.20;;;2.43;;
12350;SDS011;6240;51.538;7.696;2023-03-19T02:48:53;6.10;;;2.90;;
12350;SDS011;6240;51.538;7.696;2023-03-19T02:51:20;5.17;;;3.00;;
12350;SDS011;6240;51.538;7.696;2023-03-19T02:53:47;4.83;;;3.07;;
12350;SDS011;6240;51.538;7.696;2023-03-19T02:56:14;2.93;;;2.33;;
12350;SDS011;6240;51.538;7.696;2023-03-19T02:58:41;3.30;;;2.27;;
12350;SDS011;6240;51.538;7.696;2023-03-19T03:01:10;3.80;;;2.40;;
12350;SDS011;6240;51.538;7.696;2023-03-19T03:03:37;4.37;;;2.17;;
12350;SDS011;6240;51.538;7.696;2023-03-19T03:06:05;4.67;;;2.33;;
12350;SDS011;6240;51.538;7.696;2023-03-19T03:08:32;4.33;;;2.03;;
12350;SDS011;6240;51.538;7.696;2023-03-19T03:11:00;4.70;;;2.40;;
12350;SDS011;6240;51.538;7.696;2023-03-19T03:13:27;4.20;;;2.10;;
12350;SDS011;6240;51.538;7.696;2023-03-19T03:15:55;2.47;;;1.80;;
12350;SDS011;6240;51.538;7.696;2023-03-19T03:18:24;2.63;;;2.20;;
12350;SDS011;6240;51.538;7.696;2023-03-19T03:20:51;3.90;;;2.27;;
12350;SDS011;6240;51.538;7.696;2023-03-19T03:23:18;6.67;;;1.87;;
12350;SDS011;6240;51.538;7.696;2023-03-19T03:25:47;4.37;;;2.00;;
12350;SDS011;6240;51.538;7.696;2023-03-19T03:28:14;3.20;;;1.90;;
12350;SDS011;6240;51.538;7.696;2023-03-19T03:30:41;4.43;;;2.20;;
12350;SDS011;6240;51.538;7.696;2023-03-19T03:33:09;3.97;;;1.97;;
12350;SDS011;6240;51.538;7.696;2023-03-19T03:35:37;2.80;;;2.10;;
12350;SDS011;6240;51.538;7.696;2023-03-19T03:38:05;5.57;;;1.67;;
12350;SDS011;6240;51.538;7.696;2023-03-19T03:40:32;6.10;;;1.80;;
12350;SDS011;6240;51.538;7.696;2023-03-19T03:43:00;2.33;;;1.70;;
12350;SDS011;6240;51.538;7.696;2023-03-19T03:45:27;5.23;;;2.10;;
12350;SDS011;6240;51.538;7.696;2023-03-19T03:47:54;2.50;;;1.77;;
12350;SDS011;6240;51.538;7.696;2023-03-19T03:50:21;2.00;;;1.57;;
12350;SDS011;6240;51.538;7.696;2023-03-19T03:52:50;4.83;;;1.90;;
12350;SDS011;6240;51.538;7.696;2023-03-19T03:55:17;2.13;;;1.93;;
12350;SDS011;6240;51.538;7.696;2023-03-19T03:57:44;3.43;;;2.10;;
12350;SDS011;6240;51.538;7.696;2023-03-19T04:00:12;2.17;;;1.63;;
12350;SDS011;6240;51.538;7.696;2023-03-19T04:02:39;2.03;;;1.80;;
12350;SDS011;6240;51.538;7.696;2023-03-19T04:05:07;3.07;;;2.03;;
12350;SDS011;6240;51.538;7.696;2023-03-19T04:07:35;4.10;;;2.17;;
12350;SDS011;6240;51.538;7.696;2023-03-19T04:10:04;2.40;;;1.97;;
12350;SDS011;6240;51.538;7.696;2023-03-19T04:12:31;3.23;;;1.70;;
12350;SDS011;6240;51.538;7.696;2023-03-19T04:14:59;3.40;;;1.97;;
12350;SDS011;6240;51.538;7.696;2023-03-19T04:17:26;2.57;;;1.80;;
12350;SDS011;6240;51.538;7.696;2023-03-19T04:19:54;3.03;;;1.87;;
12350;SDS011;6240;51.538;7.696;2023-03-19T04:22:21;2.57;;;1.60;;
12350;SDS011;6240;51.538;7.696;2023-03-19T04:24:48;4.77;;;1.93;;
12350;SDS011;6240;51.538;7.696;2023-03-19T04:27:17;4.83;;;2.03;;
12350;SDS011;6240;51.538;7.696;2023-03-19T04:29:44;3.20;;;2.07;;
12350;SDS011;6240;51.538;7.696;2023-03-19T04:32:11;3.30;;;1.80;;
12350;SDS011;6240;51.538;7.696;2023-03-19T04:34:39;3.47;;;1.90;;
12350;SDS011;6240;51.538;7.696;2023-03-19T04:37:07;2.83;;;1.73;;
12350;SDS011;6240;51.538;7.696;2023-03-19T04:39:35;4.97;;;2.20;;
12350;SDS011;6240;51.538;7.696;2023-03-19T04:42:02;5.27;;;2.17;;
12350;SDS011;6240;51.538;7.696;2023-03-19T04:44:31;3.07;;;2.10;;
12350;SDS011;6240;51.538;7.696;2023-03-19T04:46:58;2.50;;;1.93;;
12350;SDS011;6240;51.538;7.696;2023-03-19T04:49:26;2.93;;;1.80;;
12350;SDS011;6240;51.538;7.696;2023-03-19T04:51:53;2.63;;;1.73;;
12350;SDS011;6240;51.538;7.696;2023-03-19T04:54:21;4.30;;;2.00;;
12350;SDS011;6240;51.538;7.696;2023-03-19T04:56:48;4.03;;;1.80;;
12350;SDS011;6240;51.538;7.696;2023-03-19T04:59:15;3.53;;;2.20;;
12350;SDS011;6240;51.538;7.696;2023-03-19T05:01:45;4.63;;;2.30;;
12350;SDS011;6240;51.538;7.696;2023-03-19T05:04:12;2.90;;;1.67;;
12350;SDS011;6240;51.538;7.696;2023-03-19T05:06:39;3.20;;;1.83;;
12350;SDS011;6240;51.538;7.696;2023-03-19T05:09:06;2.80;;;2.00;;
12350;SDS011;6240;51.538;7.696;2023-03-19T05:11:34;3.43;;;2.13;;
12350;SDS011;6240;51.538;7.696;2023-03-19T05:14:01;3.87;;;2.13;;
12350;SDS011;6240;51.538;7.696;2023-03-19T05:16:28;4.67;;;2.13;;
12350;SDS011;6240;51.538;7.696;2023-03-19T05:18:57;2.70;;;2.07;;
12350;SDS011;6240;51.538;7.696;2023-03-19T05:21:24;3.40;;;2.07;;
12350;SDS011;6240;51.538;7.696;2023-03-19T05:23:51;5.10;;;2.63;;
12350;SDS011;6240;51.538;7.696;2023-03-19T05:26:19;4.07;;;1.90;;
12350;SDS011;6240;51.538;7.696;2023-03-19T05:28:46;4.10;;;2.50;;
12350;SDS011;6240;51.538;7.696;2023-03-19T05:31:14;3.80;;;2.40;;
12350;SDS011;6240;51.538;7.696;2023-03-19T05:33:41;2.50;;;2.20;;
12350;SDS011;6240;51.538;7.696;2023-03-19T05:36:09;2.90;;;1.97;;
12350;SDS011;6240;51.538;7.696;2023-03-19T05:38:37;4.73;;;2.53;;
12350;SDS011;6240;51.538;7.696;2023-03-19T05:41:05;2.97;;;2.10;;
12350;SDS011;6240;51.538;7.696;2023-03-19T05:43:32;5.53;;;2.20;;
12350;SDS011;6240;51.538;7.696;2023-03-19T05:45:59;4.00;;;2.33;;
12350;SDS011;6240;51.538;7.696;2023-03-19T05:48:34;5.83;;;2.47;;
12350;SDS011;6240;51.538;7.696;2023-03-19T05:51:01;4.47;;;2.50;;
12350;SDS011;6240;51.538;7.696;2023-03-19T05:53:30;3.87;;;2.17;;
12350;SDS011;6240;51.538;7.696;2023-03-19T05:55:57;2.97;;;2.30;;
12350;SDS011;6240;51.538;7.696;2023-03-19T05:58:25;4.20;;;2.30;;
12350;SDS011;6240;51.538;7.696;2023-03-19T06:00:53;3.03;;;1.90;;
12350;SDS011;6240;51.538;7.696;2023-03-19T06:03:20;2.27;;;1.90;;
12350;SDS011;6240;51.538;7.696;2023-03-19T06:05:47;4.73;;;2.00;;
12350;SDS011;6240;51.538;7.696;2023-03-19T06:08:15;2.70;;;2.10;;
12350;SDS011;6240;51.538;7.696;2023-03-19T06:10:44;3.73;;;2.00;;
12350;SDS011;6240;51.538;7.696;2023-03-19T06:13:11;3.10;;;2.00;;
12350;SDS011;6240;51.538;7.696;2023-03-19T06:15:38;3.23;;;2.07;;
12350;SDS011;6240;51.538;7.696;2023-03-19T06:18:06;3.23;;;2.17;;
12350;SDS011;6240;51.538;7.696;2023-03-19T06:20:33;2.87;;;1.87;;
12350;SDS011;6240;51.538;7.696;2023-03-19T06:23:00;2.10;;;1.90;;
12350;SDS011;6240;51.538;7.696;2023-03-19T06:25:27;3.10;;;1.90;;
12350;SDS011;6240;51.538;7.696;2023-03-19T06:27:55;3.80;;;1.93;;
12350;SDS011;6240;51.538;7.696;2023-03-19T06:30:23;4.47;;;2.10;;
12350;SDS011;6240;51.538;7.696;2023-03-19T06:32:50;2.80;;;2.17;;
12350;SDS011;6240;51.538;7.696;2023-03-19T06:35:17;3.30;;;1.87;;
12350;SDS011;6240;51.538;7.696;2023-03-19T06:37:45;2.00;;;1.80;;
12350;SDS011;6240;51.538;7.696;2023-03-19T06:40:13;5.33;;;2.07;;
12350;SDS011;6240;51.538;7.696;2023-03-19T06:42:43;3.17;;;1.90;;
12350;SDS011;6240;51.538;7.696;2023-03-19T06:45:12;2.67;;;1.80;;
12350;SDS011;6240;51.538;7.696;2023-03-19T06:47:40;4.27;;;2.00;;
12350;SDS011;6240;51.538;7.696;2023-03-19T06:50:08;2.63;;;1.93;;
12350;SDS011;6240;51.538;7.696;2023-03-19T06:52:36;2.27;;;2.07;;
12350;SDS011;6240;51.538;7.696;2023-03-19T06:55:03;4.27;;;2.00;;
12350;SDS011;6240;51.538;7.696;2023-03-19T06:57:31;2.40;;;1.90;;
12350;SDS011;6240;51.538;7.696;2023-03-19T06:59:58;4.80;;;2.00;;
12350;SDS011;6240;51.538;7.696;2023-03-19T07:02:26;4.20;;;1.97;;
12350;SDS011;6240;51.538;7.696;2023-03-19T07:04:53;3.60;;;2.13;;
12350;SDS011;6240;51.538;7.696;2023-03-19T07:07:20;3.57;;;2.03;;
12350;SDS011;6240;51.538;7.696;2023-03-19T07:09:48;2.17;;;1.63;;
12350;SDS011;6240;51.538;7.696;2023-03-19T07:12:15;2.67;;;1.70;;
12350;SDS011;6240;51.538;7.696;2023-03-19T07:14:42;4.93;;;1.73;;
12350;SDS011;6240;51.538;7.696;2023-03-19T07:17:09;3.80;;;2.00;;
12350;SDS011;6240;51.538;7.696;2023-03-19T07:19:38;4.53;;;1.70;;
12350;SDS011;6240;51.538;7.696;2023-03-19T07:22:05;4.23;;;1.87;;
12350;SDS011;6240;51.538;7.696;2023-03-19T07:24:32;3.37;;;1.80;;
12350;SDS011;6240;51.538;7.696;2023-03-19T07:27:00;4.97;;;2.00;;
12350;SDS011;6240;51.538;7.696;2023-03-19T07:29:27;2.20;;;1.77;;
12350;SDS011;6240;51.538;7.696;2023-03-19T07:31:54;3.03;;;1.60;;
12350;SDS011;6240;51.538;7.696;2023-03-19T07:34:22;1.83;;;1.50;;
12350;SDS011;6240;51.538;7.696;2023-03-19T07:36:50;3.50;;;1.60;;
12350;SDS011;6240;51.538;7.696;2023-03-19T07:39:18;4.00;;;1.97;;
12350;SDS011;6240;51.538;7.696;2023-03-19T07:41:45;4.60;;;1.87;;
12350;SDS011;6240;51.538;7.696;2023-03-19T07:44:13;2.63;;;2.07;;
12350;SDS011;6240;51.538;7.696;2023-03-19T07:46:40;2.40;;;2.00;;
12350;SDS011;6240;51.538;7.696;2023-03-19T07:49:08;3.13;;;2.23;;
12350;SDS011;6240;51.538;7.696;2023-03-19T07:51:35;6.03;;;2.90;;
12350;SDS011;6240;51.538;7.696;2023-03-19T07:54:03;4.23;;;3.17;;
12350;SDS011;6240;51.538;7.696;2023-03-19T07:56:30;3.03;;;2.43;;
12350;SDS011;6240;51.538;7.696;2023-03-19T07:58:58;3.87;;;2.60;;
12350;SDS011;6240;51.538;7.696;2023-03-19T08:01:25;2.67;;;2.20;;
12350;SDS011;6240;51.538;7.696;2023-03-19T08:03:52;3.30;;;2.23;;
12350;SDS011;6240;51.538;7.696;2023-03-19T08:06:20;3.90;;;2.20;;
12350;SDS011;6240;51.538;7.696;2023-03-19T08:08:47;3.50;;;1.90;;
12350;SDS011;6240;51.538;7.696;2023-03-19T08:11:16;3.23;;;2.20;;
12350;SDS011;6240;51.538;7.696;2023-03-19T08:13:43;2.57;;;2.10;;
12350;SDS011;6240;51.538;7.696;2023-03-19T08:16:11;2.97;;;2.03;;
12350;SDS011;6240;51.538;7.696;2023-03-19T08:18:39;3.90;;;2.50;;
12350;SDS011;6240;51.538;7.696;2023-03-19T08:21:08;4.60;;;2.73;;
12350;SDS011;6240;51.538;7.696;2023-03-19T08:23:35;3.30;;;2.60;;
12350;SDS011;6240;51.538;7.696;2023-03-19T08:26:02;4.27;;;2.83;;
12350;SDS011;6240;51.538;7.696;2023-03-19T08:28:31;4.60;;;3.03;;
12350;SDS011;6240;51.538;7.696;2023-03-19T08:31:04;3.67;;;3.27;;
12350;SDS011;6240;51.538;7.696;2023-03-19T08:33:32;4.37;;;3.97;;
12350;SDS011;6240;51.538;7.696;2023-03-19T08:36:03;4.73;;;3.70;;
12350;SDS011;6240;51.538;7.696;2023-03-19T08:38:30;4.13;;;3.70;;
12350;SDS011;6240;51.538;7.696;2023-03-19T08:40:57;5.00;;;4.00;;
12350;SDS011;6240;51.538;7.696;2023-03-19T08:43:26;5.20;;;3.73;;
12350;SDS011;6240;51.538;7.696;2023-03-19T08:45:55;4.63;;;4.23;;
12350;SDS011;6240;51.538;7.696;2023-03-19T08:48:22;5.30;;;3.93;;
12350;SDS011;6240;51.538;7.696;2023-03-19T08:50:51;5.10;;;3.93;;
12350;SDS011;6240;51.538;7.696;2023-03-19T08:53:18;5.37;;;4.00;;
12350;SDS011;6240;51.538;7.696;2023-03-19T08:55:49;4.43;;;3.23;;
12350;SDS011;6240;51.538;7.696;2023-03-19T08:58:17;3.80;;;3.43;;
12350;SDS011;6240;51.538;7.696;2023-03-19T09:00:44;3.43;;;3.13;;
12350;SDS011;6240;51.538;7.696;2023-03-19T09:03:13;5.70;;;3.50;;
12350;SDS011;6240;51.538;7.696;2023-03-19T09:05:41;3.63;;;3.30;;
12350;SDS011;6240;51.538;7.696;2023-03-19T09:08:09;4.10;;;3.40;;
12350;SDS011;6240;51.538;7.696;2023-03-19T09:10:36;4.60;;;3.80;;
12350;SDS011;6240;51.538;7.696;2023-03-19T09:13:04;5.33;;;3.43;;
12350;SDS011;6240;51.538;7.696;2023-03-19T09:15:31;6.37;;;3.70;;
12350;SDS011;6240;51.538;7.696;2023-03-19T09:17:58;2.97;;;2.67;;
12350;SDS011;6240;51.538;7.696;2023-03-19T09:20:26;3.13;;;2.47;;
12350;SDS011;6240;51.538;7.696;2023-03-19T09:22:53;4.43;;;2.30;;
12350;SDS011;6240;51.538;7.696;2023-03-19T09:25:21;2.50;;;2.30;;
12350;SDS011;6240;51.538;7.696;2023-03-19T09:27:48;2.13;;;1.93;;
12350;SDS011;6240;51.538;7.696;2023-03-19T09:30:15;3.40;;;2.30;;
12350;SDS011;6240;51.538;7.696;2023-03-19T09:32:42;3.50;;;1.70;;
12350;SDS011;6240;51.538;7.696;2023-03-19T09:35:10;1.83;;;1.63;;
12350;SDS011;6240;51.538;7.696;2023-03-19T09:37:38;3.43;;;2.20;;
12350;SDS011;6240;51.538;7.696;2023-03-19T09:40:06;2.57;;;1.80;;
12350;SDS011;6240;51.538;7.696;2023-03-19T09:42:42;2.90;;;2.10;;
12350;SDS011;6240;51.538;7.696;2023-03-19T09:45:11;2.63;;;2.43;;
12350;SDS011;6240;51.538;7.696;2023-03-19T09:47:40;3.33;;;2.33;;
12350;SDS011;6240;51.538;7.696;2023-03-19T09:50:10;3.40;;;2.07;;
12350;SDS011;6240;51.538;7.696;2023-03-19T09:52:42;2.47;;;2.17;;
12350;SDS011;6240;51.538;7.696;2023-03-19T09:55:24;3.33;;;2.43;;
12350;SDS011;6240;51.538;7.696;2023-03-19T09:57:54;4.00;;;2.93;;
12350;SDS011;6240;51.538;7.696;2023-03-19T10:00:24;4.93;;;3.27;;
12350;SDS011;6240;51.538;7.696;2023-03-19T10:02:53;4.20;;;3.80;;
12350;SDS011;6240;51.538;7.696;2023-03-19T10:05:22;5.57;;;4.10;;
12350;SDS011;6240;51.538;7.696;2023-03-19T10:08:00;4.17;;;3.70;;
12350;SDS011;6240;51.538;7.696;2023-03-19T10:10:33;4.00;;;3.60;;
12350;SDS011;6240;51.538;7.696;2023-03-19T10:13:06;4.60;;;4.00;;
12350;SDS011;6240;51.538;7.696;2023-03-19T10:15:35;4.40;;;4.00;;
12350;SDS011;6240;51.538;7.696;2023-03-19T10:18:04;4.90;;;3.93;;
12350;SDS011;6240;51.538;7.696;2023-03-19T10:23:25;5.43;;;3.57;;
12350;SDS011;6240;51.538;7.696;2023-03-19T10:25:55;4.57;;;3.67;;
12350;SDS011;6240;51.538;7.696;2023-03-19T10:28:22;4.27;;;3.57;;
12350;SDS011;6240;51.538;7.696;2023-03-19T10:30:54;3.43;;;3.13;;
12350;SDS011;6240;51.538;7.696;2023-03-19T10:33:24;5.40;;;3.33;;
12350;SDS011;6240;51.538;7.696;2023-03-19T10:35:55;5.00;;;3.00;;
12350;SDS011;6240;51.538;7.696;2023-03-19T10:38:25;3.17;;;2.97;;
12350;SDS011;6240;51.538;7.696;2023-03-19T10:41:09;3.33;;;3.03;;
12350;SDS011;6240;51.538;7.696;2023-03-19T10:43:37;3.73;;;3.07;;
12350;SDS011;6240;51.538;7.696;2023-03-19T10:46:10;3.20;;;2.90;;
12350;SDS011;6240;51.538;7.696;2023-03-19T10:48:41;4.10;;;3.70;;
12350;SDS011;6240;51.538;7.696;2023-03-19T10:51:09;4.70;;;3.90;;
12350;SDS011;6240;51.538;7.696;2023-03-19T10:53:40;3.73;;;3.20;;
12350;SDS011;6240;51.538;7.696;2023-03-19T10:56:15;4.00;;;3.60;;
12350;SDS011;6240;51.538;7.696;2023-03-19T10:58:54;5.90;;;4.20;;
12350;SDS011;6240;51.538;7.696;2023-03-19T11:01:21;4.70;;;4.20;;
12350;SDS011;6240;51.538;7.696;2023-03-19T11:03:54;7.03;;;5.97;;
12350;SDS011;6240;51.538;7.696;2023-03-19T11:06:22;5.07;;;4.57;;
12350;SDS011;6240;51.538;7.696;2023-03-19T11:08:54;4.47;;;4.07;;
12350;SDS011;6240;51.538;7.696;2023-03-19T11:11:22;4.43;;;4.03;;
12350;SDS011;6240;51.538;7.696;2023-03-19T11:13:50;4.23;;;3.70;;
12350;SDS011;6240;51.538;7.696;2023-03-19T11:16:18;4.27;;;3.87;;
12350;SDS011;6240;51.538;7.696;2023-03-19T11:18:46;4.37;;;3.73;;
12350;SDS011;6240;51.538;7.696;2023-03-19T11:21:21;4.77;;;3.80;;
12350;SDS011;6240;51.538;7.696;2023-03-19T11:23:50;4.50;;;4.10;;
12350;SDS011;6240;51.538;7.696;2023-03-19T11:26:19;4.40;;;4.00;;
12350;SDS011;6240;51.538;7.696;2023-03-19T11:28:49;4.93;;;4.10;;
12350;SDS011;6240;51.538;7.696;2023-03-19T11:31:18;4.27;;;3.87;;
12350;SDS011;6240;51.538;7.696;2023-03-19T11:33:59;5.40;;;4.60;;
12350;SDS011;6240;51.538;7.696;2023-03-19T11:36:30;4.60;;;4.20;;
12350;SDS011;6240;51.538;7.696;2023-03-19T11:39:03;5.03;;;4.53;;
12350;SDS011;6240;51.538;7.696;2023-03-19T11:41:39;4.87;;;4.43;;
12350;SDS011;6240;51.538;7.696;2023-03-19T11:44:12;4.10;;;3.60;;
12350;SDS011;6240;51.538;7.696;2023-03-19T11:46:45;4.60;;;3.77;;
12350;SDS011;6240;51.538;7.696;2023-03-19T11:49:26;3.90;;;3.43;;
12350;SDS011;6240;51.538;7.696;2023-03-19T11:51:57;4.57;;;4.17;;
12350;SDS011;6240;51.538;7.696;2023-03-19T11:54:30;4.10;;;3.70;;
12350;SDS011;6240;51.538;7.696;2023-03-19T11:57:03;4.30;;;3.90;;
12350;SDS011;6240;51.538;7.696;2023-03-19T12:05:13;3.80;;;3.40;;
12350;SDS011;6240;51.538;7.696;2023-03-19T12:07:46;2.70;;;2.50;;
12350;SDS011;6240;51.538;7.696;2023-03-19T12:10:32;2.40;;;2.20;;
12350;SDS011;6240;51.538;7.696;2023-03-19T12:13:09;2.93;;;2.30;;
12350;SDS011;6240;51.538;7.696;2023-03-19T12:15:40;3.13;;;2.30;;
12350;SDS011;6240;51.538;7.696;2023-03-19T12:18:10;1.90;;;1.70;;
12350;SDS011;6240;51.538;7.696;2023-03-19T12:20:49;2.10;;;1.83;;
12350;SDS011;6240;51.538;7.696;2023-03-19T12:23:22;1.60;;;1.47;;
12350;SDS011;6240;51.538;7.696;2023-03-19T12:25:57;1.60;;;1.50;;
12350;SDS011;6240;51.538;7.696;2023-03-19T12:28:32;2.33;;;1.40;;
12350;SDS011;6240;51.538;7.696;2023-03-19T12:33:56;3.40;;;1.63;;
12350;SDS011;6240;51.538;7.696;2023-03-19T12:36:27;1.53;;;1.43;;
12350;SDS011;6240;51.538;7.696;2023-03-19T12:38:57;1.93;;;1.50;;
12350;SDS011;6240;51.538;7.696;2023-03-19T12:41:28;2.03;;;1.30;;
12350;SDS011;6240;51.538;7.696;2023-03-19T12:44:00;1.53;;;1.43;;
12350;SDS011;6240;51.538;7.696;2023-03-19T12:46:36;1.40;;;1.30;;
12350;SDS011;6240;51.538;7.696;2023-03-19T12:49:09;1.20;;;1.10;;
12350;SDS011;6240;51.538;7.696;2023-03-19T12:51:37;1.60;;;1.40;;
12350;SDS011;6240;51.538;7.696;2023-03-19T12:54:06;2.63;;;1.30;;
12350;SDS011;6240;51.538;7.696;2023-03-19T12:56:37;1.63;;;1.53;;
12350;SDS011;6240;51.538;7.696;2023-03-19T12:59:08;1.40;;;1.30;;
12350;SDS011;6240;51.538;7.696;2023-03-19T13:01:39;1.97;;;1.80;;
12350;SDS011;6240;51.538;7.696;2023-03-19T13:04:10;2.73;;;1.87;;
12350;SDS011;6240;51.538;7.696;2023-03-19T13:06:42;3.20;;;1.90;;
12350;SDS011;6240;51.538;7.696;2023-03-19T13:09:12;1.33;;;1.00;;
12350;SDS011;6240;51.538;7.696;2023-03-19T13:11:43;1.40;;;1.20;;
12350;SDS011;6240;51.538;7.696;2023-03-19T13:14:15;3.17;;;1.50;;
12350;SDS011;6240;51.538;7.696;2023-03-19T13:16:45;2.10;;;1.30;;
12350;SDS011;6240;51.538;7.696;2023-03-19T13:19:17;1.30;;;1.20;;
12350;SDS011;6240;51.538;7.696;2023-03-19T13:21:46;2.70;;;1.70;;
12350;SDS011;6240;51.538;7.696;2023-03-19T13:24:17;4.57;;;3.50;;
12350;SDS011;6240;51.538;7.696;2023-03-19T13:26:46;3.87;;;3.10;;
12350;SDS011;6240;51.538;7.696;2023-03-19T13:29:16;3.27;;;2.97;;
12350;SDS011;6240;51.538;7.696;2023-03-19T13:31:44;3.10;;;2.43;;
12350;SDS011;6240;51.538;7.696;2023-03-19T13:34:19;3.13;;;2.53;;
12350;SDS011;6240;51.538;7.696;2023-03-19T13:36:50;2.03;;;1.93;;
12350;SDS011;6240;51.538;7.696;2023-03-19T13:39:18;2.27;;;2.07;;
12350;SDS011;6240;51.538;7.696;2023-03-19T13:41:56;2.83;;;2.63;;
12350;SDS011;6240;51.538;7.696;2023-03-19T13:44:37;2.90;;;2.70;;
12350;SDS011;6240;51.538;7.696;2023-03-19T13:50:11;4.33;;;2.57;;
12350;SDS011;6240;51.538;7.696;2023-03-19T13:52:49;3.73;;;3.33;;
12350;SDS011;6240;51.538;7.696;2023-03-19T13:55:27;1.77;;;1.60;;
12350;SDS011;6240;51.538;7.696;2023-03-19T13:57:57;1.53;;;1.43;;
12350;SDS011;6240;51.538;7.696;2023-03-19T14:00:53;1.80;;;1.70;;
12350;SDS011;6240;51.538;7.696;2023-03-19T14:03:22;4.53;;;1.83;;
12350;SDS011;6240;51.538;7.696;2023-03-19T14:05:50;2.60;;;1.73;;
12350;SDS011;6240;51.538;7.696;2023-03-19T14:08:20;1.93;;;1.83;;
12350;SDS011;6240;51.538;7.696;2023-03-19T14:10:48;2.23;;;1.90;;
12350;SDS011;6240;51.538;7.696;2023-03-19T14:13:17;1.87;;;1.70;;
12350;SDS011;6240;51.538;7.696;2023-03-19T14:15:47;2.00;;;1.90;;
12350;SDS011;6240;51.538;7.696;2023-03-19T14:18:17;2.10;;;1.83;;
12350;SDS011;6240;51.538;7.696;2023-03-19T14:20:48;2.23;;;2.03;;
12350;SDS011;6240;51.538;7.696;2023-03-19T14:23:20;3.70;;;2.10;;
12350;SDS011;6240;51.538;7.696;2023-03-19T14:25:52;2.23;;;2.00;;
12350;SDS011;6240;51.538;7.696;2023-03-19T14:28:22;3.67;;;2.00;;
12350;SDS011;6240;51.538;7.696;2023-03-19T14:30:51;1.77;;;1.67;;
12350;SDS011;6240;51.538;7.696;2023-03-19T14:33:21;2.33;;;2.13;;
12350;SDS011;6240;51.538;7.696;2023-03-19T14:35:52;4.50;;;2.40;;
12350;SDS011;6240;51.538;7.696;2023-03-19T14:38:23;2.30;;;2.10;;
12350;SDS011;6240;51.538;7.696;2023-03-19T14:40:53;2.13;;;1.90;;
12350;SDS011;6240;51.538;7.696;2023-03-19T14:43:24;4.53;;;1.92;;
12350;SDS011;6240;51.538;7.696;2023-03-19T14:45:58;4.63;;;2.40;;
12350;SDS011;6240;51.538;7.696;2023-03-19T14:48:54;2.00;;;1.90;;
12350;SDS011;6240;51.538;7.696;2023-03-19T14:54:14;2.87;;;2.10;;
12350;SDS011;6240;51.538;7.696;2023-03-19T14:56:44;3.07;;;2.40;;
12350;SDS011;6240;51.538;7.696;2023-03-19T14:59:14;4.27;;;3.40;;
12350;SDS011;6240;51.538;7.696;2023-03-19T15:01:43;4.53;;;4.07;;
12350;SDS011;6240;51.538;7.696;2023-03-19T15:04:13;4.77;;;4.37;;
12350;SDS011;6240;51.538;7.696;2023-03-19T15:06:41;5.20;;;4.80;;
12350;SDS011;6240;51.538;7.696;2023-03-19T15:09:11;5.47;;;4.93;;
12350;SDS011;6240;51.538;7.696;2023-03-19T15:11:51;3.93;;;3.63;;
12350;SDS011;6240;51.538;7.696;2023-03-19T15:14:30;4.07;;;3.77;;
12350;SDS011;6240;51.538;7.696;2023-03-19T15:17:00;4.00;;;3.67;;
12350;SDS011;6240;51.538;7.696;2023-03-19T15:19:31;3.70;;;3.40;;
12350;SDS011;6240;51.538;7.696;2023-03-19T15:22:02;3.20;;;3.00;;
12350;SDS011;6240;51.538;7.696;2023-03-19T15:24:30;3.30;;;3.00;;
12350;SDS011;6240;51.538;7.696;2023-03-19T15:26:58;3.00;;;2.80;;
12350;SDS011;6240;51.538;7.696;2023-03-19T15:29:29;3.13;;;2.83;;